Russellville, AR

8:12 PM CDT on October 01, 2014 (GMT -0500)
Amateur Radio Station WB5JJJ | Change Station
CLOSE
Current Station
Personal Weather Station
Location: Russellville, AR
Elevation: 377 ft
Nearby Weather Stations

Elev 377 ft 35.28 °N, 93.15 °W | Updated 3 seconds ago

Clear
Clear
78.0 °F
Feels Like 80 °F
N
0.0
Wind Variable Wind from SE
Gusts 2.0 mph

Today
High -- | Low -- °F
--% Chance of Precip.
Yesterday
High -- | Low -- °F
Precip. -- in
7:07 AM 6:56 PM
First Quarter, 53% visible
Pressure 29.80 in
Visibility 10.0 miles
Clouds Clear
Heat Index 80 °F
Dew Point 72 °F
Humidity 81%
Rainfall 0.00 in
Snow Depth Not available.
UV 0 out of 12
Pollen 8.60 out of 12
Air Quality Not available.
Flu Activity Not available.
METAR KRUE 020053Z AUTO 00000KT 10SM CLR 24/21 A2981 RMK AO2 SLP089 T02390206

More Conditions Fewer Conditions

Pressure 29.80 in
Visibility 10.0 miles
Clouds Clear
Heat Index 80 °F
Dew Point 72 °F
Humidity 81%
Rainfall 0.00 in
Snow Depth Not available.
UV 0 out of 12
Pollen 8.60 out of 12
Air Quality Not available.
Flu Activity Not available.
METAR KRUE 020053Z AUTO 00000KT 10SM CLR 24/21 A2981 RMK AO2 SLP089 T02390206

More Conditions Fewer Conditions

10-Day Weather Forecast

Almanac

Astronomy

Oct. 01, 2014 Rise Set
Actual Time 7:07 AM CDT 6:56 PM CDT
Civil Twilight 6:42 AM CDT 7:21 PM CDT
Nautical Twilight 6:12 AM CDT 7:51 PM CDT
Astronomical Twilight 5:42 AM CDT 8:20 PM CDT
Moon 1:59 PM CDT (10/1) No Moon Set
Length of Visible Light 12h 39m
Length of Day
11h 48m
Tomorrow will be 2m 12s shorter.
First Quarter, 53% of the Moon is Illuminated
Today
First Quarter
Oct 8
Full
Oct 15
Last Quarter
Oct 23
New
Oct 30
First Quarter

Today's Extremes

State Highs State Lows

Community

WunderPhotos

Upload Photos

1,758,112 photos uploaded!

WunderBlogs® & News

Nearby

Snow Depth

Station Depth Elevation
No new snow has been reported.

Earthquake Activity

City Distance Mag. Time & Date
No recent earthquake activity has been reported nearby.
Minimum magnitude displayed is 2.5.

Coastal Water Temperatures

Place Temperature
No Stations Reporting

Nearby Weather Stations